sensor_id;sensor_type;location;lat;lon;timestamp;P1;durP1;ratioP1;P2;durP2;ratioP2
60169;SDS011;46042;49.444;6.862;2023-03-05T00:01:16;7.13;;;3.67;;
60169;SDS011;46042;49.444;6.862;2023-03-05T00:03:44;7.35;;;3.88;;
60169;SDS011;46042;49.444;6.862;2023-03-05T00:06:11;6.93;;;3.78;;
60169;SDS011;46042;49.444;6.862;2023-03-05T00:08:38;11.30;;;4.57;;
60169;SDS011;46042;49.444;6.862;2023-03-05T00:11:06;9.75;;;4.68;;
60169;SDS011;46042;49.444;6.862;2023-03-05T00:13:35;7.35;;;4.43;;
60169;SDS011;46042;49.444;6.862;2023-03-05T00:16:06;6.43;;;3.83;;
60169;SDS011;46042;49.444;6.862;2023-03-05T00:18:37;9.00;;;4.40;;
60169;SDS011;46042;49.444;6.862;2023-03-05T00:21:12;8.45;;;4.22;;
60169;SDS011;46042;49.444;6.862;2023-03-05T00:24:04;9.77;;;4.15;;
60169;SDS011;46042;49.444;6.862;2023-03-05T00:26:37;7.18;;;4.10;;
60169;SDS011;46042;49.444;6.862;2023-03-05T00:29:04;11.50;;;4.32;;
60169;SDS011;46042;49.444;6.862;2023-03-05T00:31:32;9.60;;;3.95;;
60169;SDS011;46042;49.444;6.862;2023-03-05T00:34:05;7.93;;;4.15;;
60169;SDS011;46042;49.444;6.862;2023-03-05T00:36:33;10.77;;;4.45;;
60169;SDS011;46042;49.444;6.862;2023-03-05T00:39:00;10.70;;;4.55;;
60169;SDS011;46042;49.444;6.862;2023-03-05T00:41:27;13.23;;;5.25;;
60169;SDS011;46042;49.444;6.862;2023-03-05T00:43:53;11.55;;;4.78;;
60169;SDS011;46042;49.444;6.862;2023-03-05T00:46:20;11.05;;;4.60;;
60169;SDS011;46042;49.444;6.862;2023-03-05T00:48:48;9.02;;;4.65;;
60169;SDS011;46042;49.444;6.862;2023-03-05T00:51:15;8.27;;;4.68;;
60169;SDS011;46042;49.444;6.862;2023-03-05T00:53:41;9.25;;;5.85;;
60169;SDS011;46042;49.444;6.862;2023-03-05T00:56:08;8.60;;;5.13;;
60169;SDS011;46042;49.444;6.862;2023-03-05T00:58:34;12.50;;;5.03;;
60169;SDS011;46042;49.444;6.862;2023-03-05T01:01:01;11.23;;;4.85;;
60169;SDS011;46042;49.444;6.862;2023-03-05T01:03:29;14.00;;;5.93;;
60169;SDS011;46042;49.444;6.862;2023-03-05T01:05:56;12.57;;;5.95;;
60169;SDS011;46042;49.444;6.862;2023-03-05T01:08:23;12.45;;;5.50;;
60169;SDS011;46042;49.444;6.862;2023-03-05T01:10:50;14.02;;;6.18;;
60169;SDS011;46042;49.444;6.862;2023-03-05T01:13:17;11.18;;;5.65;;
60169;SDS011;46042;49.444;6.862;2023-03-05T01:15:44;14.10;;;6.88;;
60169;SDS011;46042;49.444;6.862;2023-03-05T01:18:13;13.88;;;6.45;;
60169;SDS011;46042;49.444;6.862;2023-03-05T01:20:40;11.20;;;5.97;;
60169;SDS011;46042;49.444;6.862;2023-03-05T01:23:06;11.93;;;5.60;;
60169;SDS011;46042;49.444;6.862;2023-03-05T01:25:33;14.45;;;6.22;;
60169;SDS011;46042;49.444;6.862;2023-03-05T01:28:00;10.02;;;5.75;;
60169;SDS011;46042;49.444;6.862;2023-03-05T01:30:27;11.85;;;6.38;;
60169;SDS011;46042;49.444;6.862;2023-03-05T01:32:53;12.15;;;6.57;;
60169;SDS011;46042;49.444;6.862;2023-03-05T01:35:21;15.60;;;5.60;;
60169;SDS011;46042;49.444;6.862;2023-03-05T01:37:50;10.68;;;5.93;;
60169;SDS011;46042;49.444;6.862;2023-03-05T01:42:59;15.93;;;6.32;;
60169;SDS011;46042;49.444;6.862;2023-03-05T01:45:31;15.85;;;5.75;;
60169;SDS011;46042;49.444;6.862;2023-03-05T01:47:58;10.00;;;5.13;;
60169;SDS011;46042;49.444;6.862;2023-03-05T01:50:25;8.90;;;5.80;;
60169;SDS011;46042;49.444;6.862;2023-03-05T01:53:00;11.80;;;6.32;;
60169;SDS011;46042;49.444;6.862;2023-03-05T01:55:30;10.10;;;5.75;;
60169;SDS011;46042;49.444;6.862;2023-03-05T01:58:01;10.52;;;5.85;;
60169;SDS011;46042;49.444;6.862;2023-03-05T02:00:33;11.75;;;6.40;;
60169;SDS011;46042;49.444;6.862;2023-03-05T02:03:05;14.27;;;6.22;;
60169;SDS011;46042;49.444;6.862;2023-03-05T02:05:35;13.87;;;6.47;;
60169;SDS011;46042;49.444;6.862;2023-03-05T02:08:05;12.38;;;6.07;;
60169;SDS011;46042;49.444;6.862;2023-03-05T02:10:55;11.20;;;6.22;;
60169;SDS011;46042;49.444;6.862;2023-03-05T02:13:22;10.35;;;5.57;;
60169;SDS011;46042;49.444;6.862;2023-03-05T02:15:52;12.15;;;6.88;;
60169;SDS011;46042;49.444;6.862;2023-03-05T02:18:19;13.02;;;6.55;;
60169;SDS011;46042;49.444;6.862;2023-03-05T02:23:24;13.23;;;6.53;;
60169;SDS011;46042;49.444;6.862;2023-03-05T02:25:55;22.27;;;8.52;;
60169;SDS011;46042;49.444;6.862;2023-03-05T02:28:26;13.07;;;7.28;;
60169;SDS011;46042;49.444;6.862;2023-03-05T02:30:59;13.50;;;6.88;;
60169;SDS011;46042;49.444;6.862;2023-03-05T02:33:26;12.57;;;6.68;;
60169;SDS011;46042;49.444;6.862;2023-03-05T02:35:53;16.42;;;6.95;;
60169;SDS011;46042;49.444;6.862;2023-03-05T02:38:20;17.38;;;8.18;;
60169;SDS011;46042;49.444;6.862;2023-03-05T02:40:46;15.23;;;7.03;;
60169;SDS011;46042;49.444;6.862;2023-03-05T02:43:13;11.68;;;6.10;;
60169;SDS011;46042;49.444;6.862;2023-03-05T02:45:40;14.60;;;6.97;;
60169;SDS011;46042;49.444;6.862;2023-03-05T02:48:06;11.00;;;6.80;;
60169;SDS011;46042;49.444;6.862;2023-03-05T02:50:33;12.02;;;6.15;;
60169;SDS011;46042;49.444;6.862;2023-03-05T02:53:00;12.77;;;6.22;;
60169;SDS011;46042;49.444;6.862;2023-03-05T02:55:27;15.90;;;8.00;;
60169;SDS011;46042;49.444;6.862;2023-03-05T02:57:54;12.63;;;6.88;;
60169;SDS011;46042;49.444;6.862;2023-03-05T03:00:20;17.83;;;7.20;;
60169;SDS011;46042;49.444;6.862;2023-03-05T03:02:47;9.95;;;6.30;;
60169;SDS011;46042;49.444;6.862;2023-03-05T03:05:14;14.63;;;6.78;;
60169;SDS011;46042;49.444;6.862;2023-03-05T03:07:41;10.68;;;6.05;;
60169;SDS011;46042;49.444;6.862;2023-03-05T03:10:07;13.63;;;7.13;;
60169;SDS011;46042;49.444;6.862;2023-03-05T03:12:38;15.80;;;5.70;;
60169;SDS011;46042;49.444;6.862;2023-03-05T03:15:07;11.63;;;5.15;;
60169;SDS011;46042;49.444;6.862;2023-03-05T03:17:35;9.57;;;5.18;;
60169;SDS011;46042;49.444;6.862;2023-03-05T03:20:03;8.20;;;4.82;;
60169;SDS011;46042;49.444;6.862;2023-03-05T03:22:31;14.00;;;5.03;;
60169;SDS011;46042;49.444;6.862;2023-03-05T03:24:58;13.50;;;5.68;;
60169;SDS011;46042;49.444;6.862;2023-03-05T03:27:26;13.30;;;5.38;;
60169;SDS011;46042;49.444;6.862;2023-03-05T03:29:53;12.15;;;6.72;;
60169;SDS011;46042;49.444;6.862;2023-03-05T03:32:19;8.38;;;4.10;;
60169;SDS011;46042;49.444;6.862;2023-03-05T03:34:46;12.13;;;5.60;;
60169;SDS011;46042;49.444;6.862;2023-03-05T03:37:13;16.88;;;6.13;;
60169;SDS011;46042;49.444;6.862;2023-03-05T03:39:40;10.02;;;4.80;;
60169;SDS011;46042;49.444;6.862;2023-03-05T03:42:06;8.25;;;4.50;;
60169;SDS011;46042;49.444;6.862;2023-03-05T03:44:33;9.63;;;5.33;;
60169;SDS011;46042;49.444;6.862;2023-03-05T03:47:00;12.73;;;6.63;;
60169;SDS011;46042;49.444;6.862;2023-03-05T03:49:26;14.95;;;6.75;;
60169;SDS011;46042;49.444;6.862;2023-03-05T03:51:53;18.00;;;6.07;;
60169;SDS011;46042;49.444;6.862;2023-03-05T03:54:20;11.17;;;6.10;;
60169;SDS011;46042;49.444;6.862;2023-03-05T03:56:47;14.77;;;6.10;;
60169;SDS011;46042;49.444;6.862;2023-03-05T03:59:14;12.70;;;5.90;;
60169;SDS011;46042;49.444;6.862;2023-03-05T04:01:41;14.93;;;6.97;;
60169;SDS011;46042;49.444;6.862;2023-03-05T04:04:08;15.77;;;7.27;;
60169;SDS011;46042;49.444;6.862;2023-03-05T04:06:37;13.63;;;6.20;;
60169;SDS011;46042;49.444;6.862;2023-03-05T04:09:03;7.03;;;4.20;;
60169;SDS011;46042;49.444;6.862;2023-03-05T04:11:30;10.50;;;4.95;;
60169;SDS011;46042;49.444;6.862;2023-03-05T04:13:57;8.30;;;4.53;;
60169;SDS011;46042;49.444;6.862;2023-03-05T04:16:23;9.87;;;5.43;;
60169;SDS011;46042;49.444;6.862;2023-03-05T04:18:50;10.97;;;4.87;;
60169;SDS011;46042;49.444;6.862;2023-03-05T04:21:17;8.93;;;4.00;;
60169;SDS011;46042;49.444;6.862;2023-03-05T04:23:44;10.57;;;4.70;;
60169;SDS011;46042;49.444;6.862;2023-03-05T04:26:11;10.53;;;3.17;;
60169;SDS011;46042;49.444;6.862;2023-03-05T04:28:37;9.53;;;3.50;;
60169;SDS011;46042;49.444;6.862;2023-03-05T04:31:04;8.47;;;3.37;;
60169;SDS011;46042;49.444;6.862;2023-03-05T04:33:31;5.93;;;3.53;;
60169;SDS011;46042;49.444;6.862;2023-03-05T04:35:57;7.57;;;2.87;;
60169;SDS011;46042;49.444;6.862;2023-03-05T04:38:24;7.90;;;3.30;;
60169;SDS011;46042;49.444;6.862;2023-03-05T04:40:51;7.00;;;3.03;;
60169;SDS011;46042;49.444;6.862;2023-03-05T04:43:17;5.90;;;2.80;;
60169;SDS011;46042;49.444;6.862;2023-03-05T04:45:44;4.70;;;2.80;;
60169;SDS011;46042;49.444;6.862;2023-03-05T04:48:11;6.50;;;2.93;;
60169;SDS011;46042;49.444;6.862;2023-03-05T04:50:38;7.63;;;2.63;;
60169;SDS011;46042;49.444;6.862;2023-03-05T04:53:05;4.97;;;3.00;;
60169;SDS011;46042;49.444;6.862;2023-03-05T04:55:32;5.00;;;2.50;;
60169;SDS011;46042;49.444;6.862;2023-03-05T04:57:59;5.53;;;2.60;;
60169;SDS011;46042;49.444;6.862;2023-03-05T05:00:25;4.67;;;2.73;;
60169;SDS011;46042;49.444;6.862;2023-03-05T05:02:52;12.30;;;3.33;;
60169;SDS011;46042;49.444;6.862;2023-03-05T05:05:23;4.97;;;3.07;;
60169;SDS011;46042;49.444;6.862;2023-03-05T05:07:57;5.93;;;3.63;;
60169;SDS011;46042;49.444;6.862;2023-03-05T05:10:24;5.30;;;2.60;;
60169;SDS011;46042;49.444;6.862;2023-03-05T05:12:51;4.80;;;3.07;;
60169;SDS011;46042;49.444;6.862;2023-03-05T05:15:18;4.47;;;2.23;;
60169;SDS011;46042;49.444;6.862;2023-03-05T05:17:46;5.07;;;3.17;;
60169;SDS011;46042;49.444;6.862;2023-03-05T05:20:13;8.33;;;3.53;;
60169;SDS011;46042;49.444;6.862;2023-03-05T05:22:41;7.70;;;3.37;;
60169;SDS011;46042;49.444;6.862;2023-03-05T05:25:08;6.93;;;3.00;;
60169;SDS011;46042;49.444;6.862;2023-03-05T05:27:36;7.53;;;2.92;;
60169;SDS011;46042;49.444;6.862;2023-03-05T05:30:04;4.83;;;2.83;;
60169;SDS011;46042;49.444;6.862;2023-03-05T05:32:32;4.60;;;2.60;;
60169;SDS011;46042;49.444;6.862;2023-03-05T05:35:00;6.70;;;3.10;;
60169;SDS011;46042;49.444;6.862;2023-03-05T05:37:28;5.53;;;2.97;;
60169;SDS011;46042;49.444;6.862;2023-03-05T05:39:55;5.27;;;2.53;;
60169;SDS011;46042;49.444;6.862;2023-03-05T05:42:23;7.57;;;2.47;;
60169;SDS011;46042;49.444;6.862;2023-03-05T05:44:50;8.53;;;2.90;;
60169;SDS011;46042;49.444;6.862;2023-03-05T05:47:17;8.53;;;3.20;;
60169;SDS011;46042;49.444;6.862;2023-03-05T05:49:44;5.73;;;2.73;;
60169;SDS011;46042;49.444;6.862;2023-03-05T05:52:10;4.87;;;2.90;;
60169;SDS011;46042;49.444;6.862;2023-03-05T05:54:38;7.87;;;3.30;;
60169;SDS011;46042;49.444;6.862;2023-03-05T05:57:05;7.07;;;2.97;;
60169;SDS011;46042;49.444;6.862;2023-03-05T05:59:32;3.67;;;2.20;;
60169;SDS011;46042;49.444;6.862;2023-03-05T06:01:59;5.07;;;2.80;;
60169;SDS011;46042;49.444;6.862;2023-03-05T06:04:26;5.03;;;2.50;;
60169;SDS011;46042;49.444;6.862;2023-03-05T06:06:52;6.28;;;2.83;;
60169;SDS011;46042;49.444;6.862;2023-03-05T06:09:19;4.75;;;2.33;;
60169;SDS011;46042;49.444;6.862;2023-03-05T06:11:45;7.33;;;3.03;;
60169;SDS011;46042;49.444;6.862;2023-03-05T06:14:12;9.30;;;2.93;;
60169;SDS011;46042;49.444;6.862;2023-03-05T06:16:39;4.88;;;3.08;;
60169;SDS011;46042;49.444;6.862;2023-03-05T06:19:08;6.77;;;2.77;;
60169;SDS011;46042;49.444;6.862;2023-03-05T06:21:37;6.63;;;3.22;;
60169;SDS011;46042;49.444;6.862;2023-03-05T06:24:04;6.70;;;2.95;;
60169;SDS011;46042;49.444;6.862;2023-03-05T06:26:31;6.13;;;3.20;;
60169;SDS011;46042;49.444;6.862;2023-03-05T06:28:58;9.55;;;3.67;;
60169;SDS011;46042;49.444;6.862;2023-03-05T06:31:25;4.73;;;3.07;;
60169;SDS011;46042;49.444;6.862;2023-03-05T06:33:54;8.17;;;3.00;;
60169;SDS011;46042;49.444;6.862;2023-03-05T06:36:23;5.07;;;2.60;;
60169;SDS011;46042;49.444;6.862;2023-03-05T06:38:51;6.60;;;3.45;;
60169;SDS011;46042;49.444;6.862;2023-03-05T06:41:19;8.05;;;3.05;;
60169;SDS011;46042;49.444;6.862;2023-03-05T06:43:48;4.37;;;2.80;;
60169;SDS011;46042;49.444;6.862;2023-03-05T06:46:23;11.70;;;3.30;;
60169;SDS011;46042;49.444;6.862;2023-03-05T06:48:58;5.60;;;3.23;;
60169;SDS011;46042;49.444;6.862;2023-03-05T06:51:27;4.07;;;2.67;;
60169;SDS011;46042;49.444;6.862;2023-03-05T06:54:00;5.50;;;3.37;;
60169;SDS011;46042;49.444;6.862;2023-03-05T06:56:29;5.97;;;3.65;;
60169;SDS011;46042;49.444;6.862;2023-03-05T06:58:56;6.30;;;3.27;;
60169;SDS011;46042;49.444;6.862;2023-03-05T07:01:23;8.45;;;4.03;;
60169;SDS011;46042;49.444;6.862;2023-03-05T07:03:50;10.27;;;4.20;;
60169;SDS011;46042;49.444;6.862;2023-03-05T07:06:18;6.93;;;3.75;;
60169;SDS011;46042;49.444;6.862;2023-03-05T07:08:46;7.38;;;3.42;;
60169;SDS011;46042;49.444;6.862;2023-03-05T07:11:17;7.63;;;3.38;;
60169;SDS011;46042;49.444;6.862;2023-03-05T07:13:45;5.70;;;3.28;;
60169;SDS011;46042;49.444;6.862;2023-03-05T07:16:14;7.57;;;3.80;;
60169;SDS011;46042;49.444;6.862;2023-03-05T07:18:43;6.97;;;3.83;;
60169;SDS011;46042;49.444;6.862;2023-03-05T07:21:10;6.93;;;3.28;;
60169;SDS011;46042;49.444;6.862;2023-03-05T07:23:43;9.55;;;4.38;;
60169;SDS011;46042;49.444;6.862;2023-03-05T07:26:10;10.75;;;4.28;;
60169;SDS011;46042;49.444;6.862;2023-03-05T07:28:37;10.30;;;4.13;;
60169;SDS011;46042;49.444;6.862;2023-03-05T07:31:05;6.65;;;4.28;;
60169;SDS011;46042;49.444;6.862;2023-03-05T07:33:33;11.05;;;4.70;;
60169;SDS011;46042;49.444;6.862;2023-03-05T07:36:08;8.23;;;3.85;;
60169;SDS011;46042;49.444;6.862;2023-03-05T07:38:36;5.95;;;3.50;;
60169;SDS011;46042;49.444;6.862;2023-03-05T07:41:03;9.68;;;4.85;;
60169;SDS011;46042;49.444;6.862;2023-03-05T07:43:31;8.55;;;4.95;;
60169;SDS011;46042;49.444;6.862;2023-03-05T07:45:58;7.95;;;4.18;;
60169;SDS011;46042;49.444;6.862;2023-03-05T07:48:25;9.77;;;4.25;;
60169;SDS011;46042;49.444;6.862;2023-03-05T07:50:59;6.20;;;3.78;;
60169;SDS011;46042;49.444;6.862;2023-03-05T07:53:29;8.93;;;4.70;;
60169;SDS011;46042;49.444;6.862;2023-03-05T07:55:55;8.13;;;3.50;;
60169;SDS011;46042;49.444;6.862;2023-03-05T07:58:22;6.53;;;4.13;;
60169;SDS011;46042;49.444;6.862;2023-03-05T08:00:49;8.63;;;3.85;;
60169;SDS011;46042;49.444;6.862;2023-03-05T08:03:16;7.47;;;3.90;;
60169;SDS011;46042;49.444;6.862;2023-03-05T08:05:43;8.00;;;3.67;;
60169;SDS011;46042;49.444;6.862;2023-03-05T08:08:10;14.95;;;9.05;;
60169;SDS011;46042;49.444;6.862;2023-03-05T08:10:37;11.20;;;4.15;;
60169;SDS011;46042;49.444;6.862;2023-03-05T08:13:04;11.73;;;5.07;;
60169;SDS011;46042;49.444;6.862;2023-03-05T08:15:31;6.97;;;4.18;;
60169;SDS011;46042;49.444;6.862;2023-03-05T08:17:57;8.63;;;4.35;;
60169;SDS011;46042;49.444;6.862;2023-03-05T08:20:24;7.20;;;4.05;;
60169;SDS011;46042;49.444;6.862;2023-03-05T08:22:51;12.95;;;4.75;;
60169;SDS011;46042;49.444;6.862;2023-03-05T08:25:18;7.50;;;3.88;;
60169;SDS011;46042;49.444;6.862;2023-03-05T08:27:45;7.35;;;3.55;;
60169;SDS011;46042;49.444;6.862;2023-03-05T08:30:14;7.22;;;3.83;;
60169;SDS011;46042;49.444;6.862;2023-03-05T08:32:50;13.95;;;5.22;;
60169;SDS011;46042;49.444;6.862;2023-03-05T08:35:17;9.27;;;3.97;;
60169;SDS011;46042;49.444;6.862;2023-03-05T08:37:43;7.60;;;3.63;;
60169;SDS011;46042;49.444;6.862;2023-03-05T08:40:10;13.40;;;5.00;;
60169;SDS011;46042;49.444;6.862;2023-03-05T08:42:37;7.97;;;5.07;;
60169;SDS011;46042;49.444;6.862;2023-03-05T08:45:04;9.48;;;4.57;;
60169;SDS011;46042;49.444;6.862;2023-03-05T08:47:31;8.52;;;4.22;;
60169;SDS011;46042;49.444;6.862;2023-03-05T08:49:58;8.27;;;3.45;;
60169;SDS011;46042;49.444;6.862;2023-03-05T08:52:24;9.38;;;3.15;;
60169;SDS011;46042;49.444;6.862;2023-03-05T08:54:52;36.97;;;4.88;;
60169;SDS011;46042;49.444;6.862;2023-03-05T08:57:19;13.45;;;4.00;;
60169;SDS011;46042;49.444;6.862;2023-03-05T08:59:45;9.00;;;3.80;;
60169;SDS011;46042;49.444;6.862;2023-03-05T09:02:12;11.75;;;3.50;;
60169;SDS011;46042;49.444;6.862;2023-03-05T09:04:39;8.07;;;3.75;;
60169;SDS011;46042;49.444;6.862;2023-03-05T09:07:06;11.52;;;4.03;;
60169;SDS011;46042;49.444;6.862;2023-03-05T09:09:32;5.32;;;3.15;;
60169;SDS011;46042;49.444;6.862;2023-03-05T09:11:59;11.25;;;5.05;;
60169;SDS011;46042;49.444;6.862;2023-03-05T09:14:26;6.95;;;3.42;;
60169;SDS011;46042;49.444;6.862;2023-03-05T09:16:56;6.70;;;3.42;;
60169;SDS011;46042;49.444;6.862;2023-03-05T09:19:24;6.82;;;3.03;;
60169;SDS011;46042;49.444;6.862;2023-03-05T09:21:52;7.25;;;3.20;;
60169;SDS011;46042;49.444;6.862;2023-03-05T09:24:22;5.70;;;3.08;;
60169;SDS011;46042;49.444;6.862;2023-03-05T09:26:48;8.40;;;3.05;;
60169;SDS011;46042;49.444;6.862;2023-03-05T09:29:15;7.55;;;3.17;;
60169;SDS011;46042;49.444;6.862;2023-03-05T09:31:41;5.55;;;2.90;;
60169;SDS011;46042;49.444;6.862;2023-03-05T09:34:09;7.10;;;2.90;;
60169;SDS011;46042;49.444;6.862;2023-03-05T09:36:37;5.35;;;2.70;;
60169;SDS011;46042;49.444;6.862;2023-03-05T09:39:03;9.15;;;2.90;;
60169;SDS011;46042;49.444;6.862;2023-03-05T09:47:25;8.85;;;3.42;;
60169;SDS011;46042;49.444;6.862;2023-03-05T09:50:02;7.10;;;3.65;;
60169;SDS011;46042;49.444;6.862;2023-03-05T09:52:40;6.05;;;3.00;;
60169;SDS011;46042;49.444;6.862;2023-03-05T09:55:12;5.38;;;3.00;;
60169;SDS011;46042;49.444;6.862;2023-03-05T09:57:47;5.60;;;2.70;;
60169;SDS011;46042;49.444;6.862;2023-03-05T10:03:27;5.88;;;3.10;;
60169;SDS011;46042;49.444;6.862;2023-03-05T10:06:12;3.95;;;2.95;;
60169;SDS011;46042;49.444;6.862;2023-03-05T10:11:29;6.45;;;3.28;;
60169;SDS011;46042;49.444;6.862;2023-03-05T10:14:00;7.18;;;3.17;;
60169;SDS011;46042;49.444;6.862;2023-03-05T10:16:44;5.00;;;2.92;;
60169;SDS011;46042;49.444;6.862;2023-03-05T10:22:30;7.43;;;3.22;;
60169;SDS011;46042;49.444;6.862;2023-03-05T10:25:09;5.57;;;3.13;;
60169;SDS011;46042;49.444;6.862;2023-03-05T10:27:46;4.10;;;2.83;;
60169;SDS011;46042;49.444;6.862;2023-03-05T10:32:52;5.43;;;2.97;;
60169;SDS011;46042;49.444;6.862;2023-03-05T10:40:53;6.55;;;2.20;;
60169;SDS011;46042;49.444;6.862;2023-03-05T10:45:59;4.97;;;3.50;;
60169;SDS011;46042;49.444;6.862;2023-03-05T10:54:26;8.70;;;2.47;;
60169;SDS011;46042;49.444;6.862;2023-03-05T11:02:17;4.35;;;2.60;;
60169;SDS011;46042;49.444;6.862;2023-03-05T11:04:44;5.00;;;2.80;;
60169;SDS011;46042;49.444;6.862;2023-03-05T11:09:41;4.90;;;2.72;;
60169;SDS011;46042;49.444;6.862;2023-03-05T11:12:33;5.88;;;3.20;;
60169;SDS011;46042;49.444;6.862;2023-03-05T11:15:03;5.65;;;3.08;;
60169;SDS011;46042;49.444;6.862;2023-03-05T11:17:46;6.57;;;3.08;;
60169;SDS011;46042;49.444;6.862;2023-03-05T11:25:29;4.13;;;2.90;;
60169;SDS011;46042;49.444;6.862;2023-03-05T11:27:57;7.55;;;3.75;;
60169;SDS011;46042;49.444;6.862;2023-03-05T11:30:35;10.23;;;3.83;;
60169;SDS011;46042;49.444;6.862;2023-03-05T11:33:06;9.48;;;3.58;;
60169;SDS011;46042;49.444;6.862;2023-03-05T11:35:36;5.30;;;3.05;;
60169;SDS011;46042;49.444;6.862;2023-03-05T11:38:10;8.77;;;3.13;;
60169;SDS011;46042;49.444;6.862;2023-03-05T11:40:42;4.28;;;2.78;;
60169;SDS011;46042;49.444;6.862;2023-03-05T11:43:12;3.92;;;2.55;;
60169;SDS011;46042;49.444;6.862;2023-03-05T11:45:42;3.85;;;2.42;;
60169;SDS011;46042;49.444;6.862;2023-03-05T11:50:52;6.47;;;3.25;;
60169;SDS011;46042;49.444;6.862;2023-03-05T11:53:28;4.57;;;2.95;;
60169;SDS011;46042;49.444;6.862;2023-03-05T11:56:03;9.27;;;3.10;;
60169;SDS011;46042;49.444;6.862;2023-03-05T11:58:44;4.88;;;2.70;;
60169;SDS011;46042;49.444;6.862;2023-03-05T12:01:19;9.02;;;3.85;;
60169;SDS011;46042;49.444;6.862;2023-03-05T12:03:49;6.38;;;3.42;;
60169;SDS011;46042;49.444;6.862;2023-03-05T12:06:20;4.80;;;2.78;;
60169;SDS011;46042;49.444;6.862;2023-03-05T12:09:08;5.22;;;3.58;;
60169;SDS011;46042;49.444;6.862;2023-03-05T12:11:37;4.90;;;3.13;;
60169;SDS011;46042;49.444;6.862;2023-03-05T12:16:41;7.80;;;3.20;;
60169;SDS011;46042;49.444;6.862;2023-03-05T12:22:15;6.80;;;3.67;;
60169;SDS011;46042;49.444;6.862;2023-03-05T12:24:49;6.22;;;3.47;;
60169;SDS011;46042;49.444;6.862;2023-03-05T12:27:34;8.10;;;3.58;;
60169;SDS011;46042;49.444;6.862;2023-03-05T12:30:02;4.90;;;2.70;;
60169;SDS011;46042;49.444;6.862;2023-03-05T12:34:57;9.57;;;3.35;;
60169;SDS011;46042;49.444;6.862;2023-03-05T12:39:58;6.82;;;2.72;;
60169;SDS011;46042;49.444;6.862;2023-03-05T12:47:34;6.82;;;3.00;;
60169;SDS011;46042;49.444;6.862;2023-03-05T12:50:05;8.02;;;2.85;;
60169;SDS011;46042;49.444;6.862;2023-03-05T12:55:27;4.05;;;2.58;;
60169;SDS011;46042;49.444;6.862;2023-03-05T13:03:44;6.43;;;2.20;;
60169;SDS011;46042;49.444;6.862;2023-03-05T13:06:05;6.57;;;2.47;;
60169;SDS011;46042;49.444;6.862;2023-03-05T13:08:34;4.78;;;2.63;;
60169;SDS011;46042;49.444;6.862;2023-03-05T13:11:03;4.78;;;2.50;;
60169;SDS011;46042;49.444;6.862;2023-03-05T13:13:42;6.90;;;2.45;;
60169;SDS011;46042;49.444;6.862;2023-03-05T13:16:18;5.75;;;2.53;;
60169;SDS011;46042;49.444;6.862;2023-03-05T13:18:48;3.97;;;2.08;;
60169;SDS011;46042;49.444;6.862;2023-03-05T13:21:16;2.88;;;1.85;;
60169;SDS011;46042;49.444;6.862;2023-03-05T13:23:48;4.30;;;1.92;;
60169;SDS011;46042;49.444;6.862;2023-03-05T13:29:04;6.40;;;2.15;;
60169;SDS011;46042;49.444;6.862;2023-03-05T13:31:34;3.42;;;1.88;;
60169;SDS011;46042;49.444;6.862;2023-03-05T13:34:07;2.38;;;1.70;;
60169;SDS011;46042;49.444;6.862;2023-03-05T13:36:49;3.25;;;2.05;;
60169;SDS011;46042;49.444;6.862;2023-03-05T13:39:29;5.88;;;2.17;;
60169;SDS011;46042;49.444;6.862;2023-03-05T13:42:03;3.28;;;1.80;;
60169;SDS011;46042;49.444;6.862;2023-03-05T13:44:32;5.07;;;1.70;;
60169;SDS011;46042;49.444;6.862;2023-03-05T13:49:58;5.85;;;2.35;;
60169;SDS011;46042;49.444;6.862;2023-03-05T13:52:27;4.18;;;1.80;;
60169;SDS011;46042;49.444;6.862;2023-03-05T13:54:59;2.70;;;1.80;;
60169;SDS011;46042;49.444;6.862;2023-03-05T13:57:40;3.80;;;2.08;;
60169;SDS011;46042;49.444;6.862;2023-03-05T14:03:20;3.10;;;1.75;;
60169;SDS011;46042;49.444;6.862;2023-03-05T14:05:49;1.88;;;1.70;;
60169;SDS011;46042;49.444;6.862;2023-03-05T14:08:17;4.68;;;2.33;;
60169;SDS011;46042;49.444;6.862;2023-03-05T14:10:47;1.92;;;1.70;;
60169;SDS011;46042;49.444;6.862;2023-03-05T14:13:19;3.33;;;1.92;;
60169;SDS011;46042;49.444;6.862;2023-03-05T14:18:37;1.75;;;1.60;;
60169;SDS011;46042;49.444;6.862;2023-03-05T14:21:05;1.80;;;1.70;;
60169;SDS011;46042;49.444;6.862;2023-03-05T14:23:38;4.10;;;1.48;;
60169;SDS011;46042;49.444;6.862;2023-03-05T14:28:59;3.78;;;1.55;;
60169;SDS011;46042;49.444;6.862;2023-03-05T14:31:48;4.20;;;2.00;;
60169;SDS011;46042;49.444;6.862;2023-03-05T14:34:25;3.85;;;2.10;;
60169;SDS011;46042;49.444;6.862;2023-03-05T14:36:57;2.80;;;1.45;;
60169;SDS011;46042;49.444;6.862;2023-03-05T14:39:29;4.38;;;1.73;;
60169;SDS011;46042;49.444;6.862;2023-03-05T14:42:13;1.85;;;1.50;;
60169;SDS011;46042;49.444;6.862;2023-03-05T14:44:49;2.72;;;1.60;;
60169;SDS011;46042;49.444;6.862;2023-03-05T14:47:16;1.95;;;1.42;;
60169;SDS011;46042;49.444;6.862;2023-03-05T14:49:43;2.47;;;1.23;;
60169;SDS011;46042;49.444;6.862;2023-03-05T14:52:13;3.20;;;2.13;;
60169;SDS011;46042;49.444;6.862;2023-03-05T14:54:42;2.55;;;1.50;;
60169;SDS011;46042;49.444;6.862;2023-03-05T14:57:11;2.78;;;1.65;;
60169;SDS011;46042;49.444;6.862;2023-03-05T14:59:42;1.88;;;1.40;;
60169;SDS011;46042;49.444;6.862;2023-03-05T15:02:19;2.25;;;1.60;;
60169;SDS011;46042;49.444;6.862;2023-03-05T15:04:47;1.42;;;1.27;;
60169;SDS011;46042;49.444;6.862;2023-03-05T15:07:16;3.83;;;1.30;;
60169;SDS011;46042;49.444;6.862;2023-03-05T15:09:43;3.03;;;1.88;;
60169;SDS011;46042;49.444;6.862;2023-03-05T15:12:11;3.65;;;1.60;;
60169;SDS011;46042;49.444;6.862;2023-03-05T15:14:39;1.20;;;1.02;;
60169;SDS011;46042;49.444;6.862;2023-03-05T15:17:12;3.80;;;2.17;;
60169;SDS011;46042;49.444;6.862;2023-03-05T15:19:45;6.32;;;2.50;;
60169;SDS011;46042;49.444;6.862;2023-03-05T15:22:12;3.47;;;1.85;;
60169;SDS011;46042;49.444;6.862;2023-03-05T15:24:39;1.75;;;1.20;;
60169;SDS011;46042;49.444;6.862;2023-03-05T15:27:07;4.18;;;1.45;;
60169;SDS011;46042;49.444;6.862;2023-03-05T15:29:33;1.52;;;1.17;;
60169;SDS011;46042;49.444;6.862;2023-03-05T15:32:00;3.25;;;1.67;;
60169;SDS011;46042;49.444;6.862;2023-03-05T15:34:28;4.32;;;1.88;;
60169;SDS011;46042;49.444;6.862;2023-03-05T15:36:54;5.38;;;2.10;;
60169;SDS011;46042;49.444;6.862;2023-03-05T15:39:21;3.75;;;1.85;;
60169;SDS011;46042;49.444;6.862;2023-03-05T15:41:52;4.70;;;2.20;;
60169;SDS011;46042;49.444;6.862;2023-03-05T15:44:19;2.75;;;1.90;;
60169;SDS011;46042;49.444;6.862;2023-03-05T15:46:46;4.18;;;2.08;;
60169;SDS011;46042;49.444;6.862;2023-03-05T15:49:13;2.60;;;1.60;;
60169;SDS011;46042;49.444;6.862;2023-03-05T15:51:40;3.03;;;1.98;;
60169;SDS011;46042;49.444;6.862;2023-03-05T15:54:06;2.45;;;1.48;;
60169;SDS011;46042;49.444;6.862;2023-03-05T15:56:33;1.70;;;1.20;;
60169;SDS011;46042;49.444;6.862;2023-03-05T15:59:00;4.35;;;1.73;;
60169;SDS011;46042;49.444;6.862;2023-03-05T16:01:26;1.50;;;1.27;;
60169;SDS011;46042;49.444;6.862;2023-03-05T16:03:53;2.28;;;1.50;;
60169;SDS011;46042;49.444;6.862;2023-03-05T16:06:20;2.72;;;1.60;;
60169;SDS011;46042;49.444;6.862;2023-03-05T16:08:48;4.07;;;2.00;;
60169;SDS011;46042;49.444;6.862;2023-03-05T16:11:20;6.22;;;2.05;;
60169;SDS011;46042;49.444;6.862;2023-03-05T16:13:47;3.38;;;1.65;;
60169;SDS011;46042;49.444;6.862;2023-03-05T16:16:15;2.85;;;1.85;;
60169;SDS011;46042;49.444;6.862;2023-03-05T16:18:43;2.42;;;1.83;;
60169;SDS011;46042;49.444;6.862;2023-03-05T16:21:11;2.35;;;1.35;;
60169;SDS011;46042;49.444;6.862;2023-03-05T16:23:39;3.20;;;1.80;;
60169;SDS011;46042;49.444;6.862;2023-03-05T16:26:06;1.85;;;1.50;;